Time;durP1;ratioP1;P1;durP2;ratioP2;P2;SDS_P1;SDS_P2;PMS_P1;PMS_P2;Temp;Humidity;BMP_temperature;BMP_pressure;BME280_temperature;BME280_humidity;BME280_pressure;Samples;Min_cycle;Max_cycle;Signal;HPM_P1;HPM_P2
2023/04/14 00:00:48;;;;;;;8.15;3.20;;;;;;;10.59;51.58;100797.59;5119297;28;20121;-63
2023/04/14 00:03:16;;;;;;;5.30;2.15;;;;;;;10.58;51.62;100799.47;5115748;28;20115;-63
2023/04/14 00:05:45;;;;;;;5.93;2.40;;;;;;;10.57;51.59;100795.13;5117255;28;20081;-63
2023/04/14 00:08:12;;;;;;;8.57;2.60;;;;;;;10.54;51.69;100792.06;5102168;28;20540;-63
2023/04/14 00:10:40;;;;;;;5.57;2.25;;;;;;;10.53;51.46;100791.25;5118417;28;20039;-63
2023/04/14 00:13:09;;;;;;;11.00;3.53;;;;;;;10.53;51.60;100793.94;5120635;28;20170;-63
2023/04/14 00:15:37;;;;;;;6.35;2.45;;;;;;;10.51;51.62;100789.81;5119156;28;20681;-63
2023/04/14 00:18:05;;;;;;;4.40;1.90;;;;;;;10.51;51.78;100795.19;5119374;28;20136;-63
2023/04/14 00:20:33;;;;;;;9.90;3.50;;;;;;;10.50;51.84;100802.44;5115338;28;20270;-63
2023/04/14 00:23:00;;;;;;;7.22;2.58;;;;;;;10.49;51.75;100800.78;5097264;28;20154;-63
2023/04/14 00:25:28;;;;;;;5.80;2.20;;;;;;;10.48;51.57;100801.84;5114064;28;20142;-63
2023/04/14 00:27:56;;;;;;;5.63;2.25;;;;;;;10.47;51.78;100802.06;5120810;28;20103;-63
2023/04/14 00:30:25;;;;;;;5.97;2.65;;;;;;;10.44;51.79;100803.31;5108184;28;20075;-64
2023/04/14 00:32:53;;;;;;;7.15;2.70;;;;;;;10.42;51.95;100800.03;5116501;28;20066;-63
2023/04/14 00:35:23;;;;;;;4.80;2.42;;;;;;;10.41;51.90;100804.59;5105483;28;20147;-63
2023/04/14 00:37:51;;;;;;;7.50;2.47;;;;;;;10.39;52.21;100801.34;5115194;28;20137;-63
2023/04/14 00:40:19;;;;;;;6.82;2.70;;;;;;;10.38;52.12;100793.50;5113023;28;20100;-63
2023/04/14 00:42:47;;;;;;;6.28;2.35;;;;;;;10.36;52.29;100800.97;5118228;28;20094;-63
2023/04/14 00:45:15;;;;;;;6.07;2.30;;;;;;;10.35;52.07;100799.31;5108495;28;20481;-63
2023/04/14 00:47:48;;;;;;;5.72;2.22;;;;;;;10.32;52.19;100803.25;5121530;28;20339;-63
2023/04/14 00:50:17;;;;;;;6.43;2.58;;;;;;;10.31;51.91;100809.69;5105639;28;20040;-63
2023/04/14 00:52:49;;;;;;;6.35;2.15;;;;;;;10.30;52.17;100816.09;5114174;28;20052;-63
2023/04/14 00:55:18;;;;;;;4.60;2.40;;;;;;;10.28;51.98;100810.13;5119107;28;20126;-63
2023/04/14 00:57:46;;;;;;;7.18;2.85;;;;;;;10.27;52.19;100808.47;5120148;28;20527;-63
2023/04/14 01:00:14;;;;;;;6.10;2.28;;;;;;;10.25;51.90;100805.19;5120282;28;20127;-63
2023/04/14 01:02:44;;;;;;;6.47;2.30;;;;;;;10.24;52.23;100821.53;5111795;28;20079;-63
2023/04/14 01:05:12;;;;;;;6.85;2.22;;;;;;;10.22;52.50;100816.38;5120631;28;20056;-63
2023/04/14 01:07:41;;;;;;;5.72;2.17;;;;;;;10.21;52.13;100822.78;5116278;28;20066;-63
2023/04/14 01:10:10;;;;;;;5.00;2.30;;;;;;;10.21;52.10;100824.66;5119191;28;20182;-63
2023/04/14 01:12:57;;;;;;;6.93;2.97;;;;;;;10.19;52.52;100830.22;5114694;28;20054;-63
2023/04/14 01:15:33;;;;;;;8.45;2.20;;;;;;;10.15;52.20;100829.00;5105116;28;20143;-63
2023/04/14 01:18:09;;;;;;;7.80;2.33;;;;;;;10.18;52.36;100827.75;5093958;28;20135;-63
2023/04/14 01:20:41;;;;;;;5.97;2.42;;;;;;;10.16;52.25;100835.19;5119122;28;20043;-63
2023/04/14 01:23:12;;;;;;;5.00;2.10;;;;;;;10.14;52.51;100831.91;5107702;28;20130;-63
2023/04/14 01:26:15;;;;;;;7.28;2.28;;;;;;;10.11;52.20;100822.44;5104419;28;20087;-63
2023/04/14 01:29:06;;;;;;;6.03;2.70;;;;;;;10.10;52.27;100826.16;5114396;28;20050;-63
2023/04/14 01:31:39;;;;;;;7.88;2.38;;;;;;;10.09;52.27;100827.19;5119365;28;20106;-63
2023/04/14 01:34:13;;;;;;;8.77;2.35;;;;;;;10.07;52.41;100826.59;5115969;28;20059;-63
2023/04/14 01:36:43;;;;;;;5.80;2.30;;;;;;;10.06;52.27;100823.09;5114211;28;20057;-63
2023/04/14 01:39:15;;;;;;;10.38;2.42;;;;;;;10.05;52.47;100832.19;5118314;28;20039;-63
2023/04/14 01:41:47;;;;;;;10.57;3.28;;;;;;;10.04;52.67;100833.22;5114185;28;20271;-63
2023/04/14 01:44:18;;;;;;;6.55;3.10;;;;;;;10.02;52.28;100835.31;5111028;28;20058;-63
2023/04/14 01:46:50;;;;;;;6.22;2.42;;;;;;;10.00;52.58;100839.25;5110631;28;20292;-63
2023/04/14 01:49:21;;;;;;;6.30;2.53;;;;;;;10.00;52.34;100831.19;5111032;28;20067;-63
2023/04/14 01:51:50;;;;;;;8.63;2.45;;;;;;;9.98;52.55;100834.09;5118925;28;20039;-63
2023/04/14 01:54:19;;;;;;;5.40;2.35;;;;;;;9.97;52.65;100829.75;5120302;28;20051;-63
2023/04/14 01:56:51;;;;;;;5.43;2.25;;;;;;;9.98;52.66;100839.47;5111713;28;20040;-63
2023/04/14 01:59:20;;;;;;;7.20;2.30;;;;;;;9.98;52.17;100844.84;5096463;28;20104;-63
2023/04/14 02:01:51;;;;;;;9.93;2.80;;;;;;;9.95;52.62;100844.44;5106735;28;20070;-63
2023/04/14 02:04:22;;;;;;;7.28;2.33;;;;;;;9.94;52.78;100843.63;5117670;28;20047;-64
2023/04/14 02:06:51;;;;;;;5.97;2.45;;;;;;;9.86;52.44;100829.66;5099242;28;20044;-63
2023/04/14 02:09:20;;;;;;;4.88;2.10;;;;;;;9.89;52.32;100843.44;5119140;28;20055;-63
2023/04/14 02:11:50;;;;;;;4.85;2.08;;;;;;;9.91;52.46;100844.06;5118106;28;20484;-63
2023/04/14 02:14:19;;;;;;;4.80;1.83;;;;;;;9.90;52.79;100847.78;5113266;28;20232;-63
2023/04/14 02:16:48;;;;;;;5.90;2.17;;;;;;;9.88;52.48;100846.34;5118075;28;20123;-63
2023/04/14 02:19:19;;;;;;;6.10;2.15;;;;;;;9.88;52.43;100846.34;5113718;28;20044;-63
2023/04/14 02:21:49;;;;;;;6.20;2.53;;;;;;;9.86;52.42;100848.44;5089658;28;20116;-63
2023/04/14 02:24:18;;;;;;;8.88;3.28;;;;;;;9.86;52.58;100846.56;5119231;28;20053;-63
2023/04/14 02:27:07;;;;;;;5.68;2.03;;;;;;;9.85;52.52;100852.16;5117932;28;20044;-63
2023/04/14 02:29:37;;;;;;;11.15;2.55;;;;;;;9.81;52.28;100859.00;5118810;28;20040;-62
2023/04/14 02:32:10;;;;;;;6.43;2.67;;;;;;;9.80;52.89;100858.19;5119985;28;20107;-63
2023/04/14 02:35:00;;;;;;;8.00;2.35;;;;;;;9.79;52.92;100856.53;5119663;28;20051;-63
2023/04/14 02:37:34;;;;;;;5.43;2.05;;;;;;;9.77;53.09;100861.28;5112517;28;20067;-63
2023/04/14 02:40:11;;;;;;;5.20;2.13;;;;;;;9.76;52.91;100859.66;5115635;28;20035;-63
2023/04/14 02:42:43;;;;;;;7.00;2.10;;;;;;;9.75;52.76;100860.69;5119232;28;20047;-63
2023/04/14 02:45:16;;;;;;;4.53;1.70;;;;;;;9.74;52.93;100864.41;5110950;28;20293;-62
2023/04/14 02:47:47;;;;;;;6.72;3.22;;;;;;;9.70;52.58;100871.25;5114109;28;20131;-62
2023/04/14 02:50:19;;;;;;;5.43;2.63;;;;;;;9.71;52.46;100865.66;5115566;28;20044;-62
2023/04/14 02:52:50;;;;;;;6.07;2.67;;;;;;;9.67;52.80;100864.44;5119184;28;20039;-63
2023/04/14 02:55:20;;;;;;;5.72;2.33;;;;;;;9.67;52.90;100863.63;5123566;28;20035;-63
2023/04/14 02:57:49;;;;;;;5.82;3.00;;;;;;;9.65;52.86;100863.84;5115420;27;20056;-63
2023/04/14 03:00:18;;;;;;;5.53;2.05;;;;;;;9.64;52.98;100872.94;5114307;28;20044;-63
2023/04/14 03:02:46;;;;;;;5.78;2.40;;;;;;;9.63;52.54;100873.97;5122109;28;20035;-63
2023/04/14 03:05:16;;;;;;;9.23;2.85;;;;;;;9.62;52.87;100874.19;5120744;28;20047;-62
2023/04/14 03:07:46;;;;;;;7.38;2.35;;;;;;;9.62;52.79;100879.53;5103577;28;20059;-62
2023/04/14 03:10:14;;;;;;;4.88;1.98;;;;;;;9.60;52.65;100884.31;5097798;28;20039;-62
2023/04/14 03:12:43;;;;;;;7.60;2.22;;;;;;;9.58;52.74;100883.69;5119343;28;20053;-63
2023/04/14 03:15:11;;;;;;;6.63;2.40;;;;;;;9.56;53.18;100888.44;5121780;28;20663;-63
2023/04/14 03:17:40;;;;;;;5.57;2.15;;;;;;;9.54;53.10;100891.34;5114398;28;20043;-63
2023/04/14 03:20:09;;;;;;;8.65;2.70;;;;;;;9.55;53.41;100876.06;5118442;28;20059;-62
2023/04/14 03:22:40;;;;;;;7.68;2.63;;;;;;;9.53;52.84;100876.28;5119284;28;20508;-62
2023/04/14 03:25:11;;;;;;;4.93;2.17;;;;;;;9.51;53.25;100881.03;5120849;28;20071;-62
2023/04/14 03:27:40;;;;;;;7.78;2.30;;;;;;;9.50;52.95;100883.94;5109962;28;20338;-63
2023/04/14 03:30:12;;;;;;;5.13;2.25;;;;;;;9.48;53.18;100886.84;5104067;28;20039;-63
2023/04/14 03:32:42;;;;;;;6.35;3.15;;;;;;;9.46;53.33;100878.19;5121208;28;20160;-62
2023/04/14 03:35:13;;;;;;;5.85;2.00;;;;;;;9.46;52.98;100888.91;5119085;28;20035;-62
2023/04/14 03:37:45;;;;;;;5.95;2.13;;;;;;;9.45;53.19;100890.78;5119041;28;20489;-62
2023/04/14 03:40:15;;;;;;;7.80;2.22;;;;;;;9.44;52.76;100883.75;5117658;28;20384;-62
2023/04/14 03:42:45;;;;;;;6.57;2.40;;;;;;;9.42;53.31;100877.78;5108783;28;20133;-62
2023/04/14 03:45:12;;;;;;;13.55;2.65;;;;;;;9.41;52.91;100876.13;5104632;28;20068;-63
2023/04/14 03:47:40;;;;;;;6.45;2.15;;;;;;;9.41;52.80;100878.81;5116922;28;20044;-63
2023/04/14 03:50:11;;;;;;;6.95;2.30;;;;;;;9.39;53.29;100875.53;5111357;28;20498;-63
2023/04/14 03:52:42;;;;;;;4.72;2.33;;;;;;;9.38;53.38;100881.09;5095696;28;20228;-63
2023/04/14 03:55:12;;;;;;;6.57;2.20;;;;;;;9.38;53.48;100886.47;5108689;28;20473;-63
2023/04/14 03:57:42;;;;;;;5.30;2.17;;;;;;;9.37;53.15;100882.97;5110801;28;20070;-63
2023/04/14 04:00:12;;;;;;;8.10;2.28;;;;;;;9.35;53.68;100885.03;5119742;28;20063;-63
2023/04/14 04:02:42;;;;;;;6.50;2.47;;;;;;;9.35;52.75;100887.72;5121166;28;20047;-63
2023/04/14 04:05:10;;;;;;;5.03;2.40;;;;;;;9.33;53.62;100883.59;5113891;28;20070;-63
2023/04/14 04:07:40;;;;;;;8.05;2.65;;;;;;;9.33;53.26;100892.47;5108844;28;20383;-63
2023/04/14 04:10:08;;;;;;;5.20;2.58;;;;;;;9.31;53.22;100897.22;5119655;28;20496;-63
2023/04/14 04:12:41;;;;;;;5.78;2.65;;;;;;;9.27;53.45;100895.19;5120615;28;20039;-63
2023/04/14 04:15:10;;;;;;;6.60;2.08;;;;;;;9.26;53.26;100885.50;5107940;28;20050;-63
2023/04/14 04:17:38;;;;;;;10.43;2.20;;;;;;;9.28;53.23;100886.91;5116300;28;20132;-63
2023/04/14 04:20:09;;;;;;;13.20;2.53;;;;;;;9.27;53.39;100887.97;5119542;28;20048;-63
2023/04/14 04:22:40;;;;;;;5.97;2.90;;;;;;;9.25;53.07;100895.38;5118884;28;20062;-63
2023/04/14 04:25:10;;;;;;;8.77;3.05;;;;;;;9.23;53.14;100877.88;5120314;28;20433;-63
2023/04/14 04:27:40;;;;;;;5.43;2.38;;;;;;;9.21;52.95;100887.97;5115656;28;20082;-63
2023/04/14 04:30:09;;;;;;;7.72;2.58;;;;;;;9.23;53.17;100900.13;5119944;28;20050;-63
2023/04/14 04:32:37;;;;;;;8.93;2.90;;;;;;;9.21;53.76;100902.22;5119865;28;20048;-63
2023/04/14 04:35:07;;;;;;;6.15;2.28;;;;;;;9.21;53.77;100904.91;5119783;28;20472;-64
2023/04/14 04:37:36;;;;;;;6.43;2.33;;;;;;;9.20;53.69;100902.41;5097841;28;20044;-63
2023/04/14 04:40:04;;;;;;;5.90;2.38;;;;;;;9.18;53.32;100905.31;5100375;28;20048;-64
2023/04/14 04:42:32;;;;;;;4.78;1.98;;;;;;;9.16;53.38;100904.69;5117522;28;20043;-64
2023/04/14 04:45:01;;;;;;;7.32;2.80;;;;;;;9.15;53.23;100905.75;5117524;28;20044;-63
2023/04/14 04:47:28;;;;;;;7.13;2.03;;;;;;;9.16;53.44;100895.84;5105245;28;20044;-63
2023/04/14 04:49:56;;;;;;;5.40;2.10;;;;;;;9.14;53.67;100898.72;5114956;28;20048;-63
2023/04/14 04:52:24;;;;;;;7.82;3.38;;;;;;;9.12;53.23;100901.63;5118939;28;20098;-63
2023/04/14 04:54:52;;;;;;;4.43;2.10;;;;;;;9.11;53.23;100897.28;5119239;28;20081;-63
2023/04/14 04:57:20;;;;;;;7.20;2.53;;;;;;;9.11;54.04;100899.16;5115291;28;20129;-63
2023/04/14 04:59:47;;;;;;;7.60;2.67;;;;;;;9.09;53.64;100893.19;5104448;28;20153;-63
2023/04/14 05:02:17;;;;;;;6.30;2.15;;;;;;;9.07;53.80;100896.06;5118183;28;20052;-63
2023/04/14 05:04:45;;;;;;;7.40;2.78;;;;;;;9.06;54.06;100890.91;4757375;28;10000581;-64
2023/04/14 05:07:12;;;;;;;9.20;2.65;;;;;;;9.05;53.93;100890.09;5117402;28;20058;-64
2023/04/14 05:09:40;;;;;;;6.63;2.42;;;;;;;9.04;53.77;100891.13;5112036;28;20044;-63
2023/04/14 05:12:08;;;;;;;8.68;2.60;;;;;;;9.02;53.47;100903.91;5112494;28;20062;-63
2023/04/14 05:14:36;;;;;;;7.05;2.47;;;;;;;9.01;53.84;100901.44;5110848;28;20138;-63
2023/04/14 05:17:03;;;;;;;7.25;2.60;;;;;;;8.99;54.00;100896.28;5114956;28;20067;-63
2023/04/14 05:19:32;;;;;;;5.47;2.60;;;;;;;8.98;54.12;100894.66;5105832;28;20050;-63
2023/04/14 05:22:01;;;;;;;5.80;2.60;;;;;;;8.98;54.08;100897.31;5089291;28;20135;-64
2023/04/14 05:24:29;;;;;;;7.65;3.65;;;;;;;8.94;54.21;100890.75;5107449;28;20056;-62
2023/04/14 05:26:56;;;;;;;8.88;2.40;;;;;;;8.98;53.50;100894.66;5113852;28;20131;-62
2023/04/14 05:29:40;;;;;;;6.60;2.25;;;;;;;8.92;53.68;100887.44;5112183;28;20079;-62
2023/04/14 05:32:09;;;;;;;5.57;2.40;;;;;;;8.95;53.83;100887.03;5107865;28;20136;-63
2023/04/14 05:34:38;;;;;;;10.82;2.50;;;;;;;8.98;54.28;100897.31;5108009;28;20070;-63
2023/04/14 05:37:06;;;;;;;5.70;2.40;;;;;;;8.96;53.92;100894.03;5113570;28;20282;-63
2023/04/14 05:39:34;;;;;;;6.10;2.58;;;;;;;8.99;53.52;100903.50;5101149;28;20078;-63
2023/04/14 05:42:01;;;;;;;7.35;2.38;;;;;;;8.98;54.07;100910.72;5103839;28;20139;-62
2023/04/14 05:44:29;;;;;;;6.15;2.50;;;;;;;8.99;54.36;100909.69;5099236;28;20050;-63
2023/04/14 05:46:57;;;;;;;8.98;3.00;;;;;;;8.99;53.54;100901.66;5095740;28;20079;-61
2023/04/14 05:49:25;;;;;;;6.32;2.33;;;;;;;8.99;53.80;100898.97;5106859;28;20097;-65
2023/04/14 05:51:55;;;;;;;6.40;2.88;;;;;;;8.97;53.70;100895.69;5111373;28;20050;-63
2023/04/14 05:54:23;;;;;;;7.47;2.83;;;;;;;8.97;53.95;100894.84;5112865;28;20048;-63
2023/04/14 05:56:51;;;;;;;4.88;2.10;;;;;;;8.98;54.06;100902.69;5112491;28;20377;-65
2023/04/14 05:59:19;;;;;;;6.55;2.05;;;;;;;8.89;53.60;100881.69;5102656;28;20056;-64
2023/04/14 06:01:47;;;;;;;5.05;2.25;;;;;;;8.99;53.78;100901.66;5104715;28;20043;-64
2023/04/14 06:04:15;;;;;;;8.48;2.40;;;;;;;8.92;54.06;100897.34;5117937;28;20150;-64
2023/04/14 06:06:43;;;;;;;7.15;2.50;;;;;;;9.03;54.24;100904.75;5120261;28;20048;-64
2023/04/14 06:09:12;;;;;;;3.95;2.03;;;;;;;9.05;53.89;100905.34;5118533;28;20371;-64
2023/04/14 06:11:40;;;;;;;6.15;2.15;;;;;;;9.05;54.44;100910.72;5110382;28;20618;-65
2023/04/14 06:14:08;;;;;;;5.43;2.70;;;;;;;9.09;54.41;100903.91;5117208;28;20138;-65
2023/04/14 06:16:36;;;;;;;4.90;2.17;;;;;;;9.04;54.17;100884.94;5117515;28;20054;-65
2023/04/14 06:19:03;;;;;;;7.32;3.25;;;;;;;9.14;54.31;100904.91;5119536;28;20052;-65
2023/04/14 06:21:31;;;;;;;5.55;2.42;;;;;;;9.17;54.66;100895.63;5112414;28;20107;-64
2023/04/14 06:23:59;;;;;;;10.70;2.78;;;;;;;9.21;54.61;100888.81;5112307;28;20062;-65
2023/04/14 06:26:28;;;;;;;5.20;2.00;;;;;;;9.24;54.40;100890.25;5106154;28;20059;-65
2023/04/14 06:28:57;;;;;;;4.60;2.63;;;;;;;9.27;54.08;100884.44;5107905;28;20090;-64
2023/04/14 06:31:26;;;;;;;5.55;2.20;;;;;;;9.28;54.50;100894.13;5101245;28;20059;-65
2023/04/14 06:33:54;;;;;;;7.90;2.28;;;;;;;9.27;55.04;100882.59;5110785;28;20052;-65
2023/04/14 06:36:22;;;;;;;7.68;2.20;;;;;;;9.31;54.72;100872.25;5097049;28;20127;-65
2023/04/14 06:38:49;;;;;;;8.13;2.45;;;;;;;9.33;54.91;100871.00;5113844;28;20039;-68
2023/04/14 06:41:17;;;;;;;6.40;2.70;;;;;;;9.26;54.27;100859.50;5119663;28;20075;-64
2023/04/14 06:43:46;;;;;;;5.20;2.20;;;;;;;9.36;55.24;100870.59;5113857;28;20103;-66
2023/04/14 06:46:14;;;;;;;6.72;2.50;;;;;;;9.39;54.45;100880.88;5105440;27;20070;-66
2023/04/14 06:48:42;;;;;;;5.18;2.15;;;;;;;9.42;54.50;100868.91;5115889;28;20043;-67
2023/04/14 06:51:11;;;;;;;4.65;2.05;;;;;;;9.56;54.08;100873.19;5101795;28;20206;-66
2023/04/14 06:53:39;;;;;;;6.63;1.90;;;;;;;9.74;54.12;100875.13;5119160;28;20182;-66
2023/04/14 06:56:08;;;;;;;8.85;2.63;;;;;;;9.90;53.81;100871.13;5110472;28;20173;-66
2023/04/14 06:58:35;;;;;;;5.03;2.08;;;;;;;10.13;53.03;100867.84;5117240;28;20044;-66
2023/04/14 07:01:05;;;;;;;5.47;2.40;;;;;;;10.37;52.82;100859.00;5116495;28;20047;-66
2023/04/14 07:03:33;;;;;;;4.93;2.10;;;;;;;10.59;52.13;100854.84;5115709;28;20055;-66
2023/04/14 07:06:05;;;;;;;4.78;2.10;;;;;;;10.84;51.59;100857.50;5113963;28;20047;-66
2023/04/14 07:08:34;;;;;;;7.35;2.00;;;;;;;10.93;51.34;100861.53;5115667;28;20492;-66
2023/04/14 07:11:04;;;;;;;5.32;2.15;;;;;;;10.92;51.47;100856.38;5113689;28;20048;-66
2023/04/14 07:13:32;;;;;;;7.25;2.10;;;;;;;10.73;51.83;100847.47;5114809;28;20185;-66
2023/04/14 07:16:00;;;;;;;3.83;1.67;;;;;;;10.73;52.40;100855.53;5114514;28;20075;-66
2023/04/14 07:18:30;;;;;;;7.75;2.20;;;;;;;10.59;52.46;100848.66;5119068;28;20309;-66
2023/04/14 07:20:59;;;;;;;4.20;2.28;;;;;;;10.44;52.82;100849.00;5107843;28;20071;-66
2023/04/14 07:23:27;;;;;;;5.90;2.55;;;;;;;10.41;53.36;100844.06;5118852;28;20035;-66
2023/04/14 07:25:57;;;;;;;4.93;2.08;;;;;;;10.32;53.67;100851.63;5102936;28;20064;-66
2023/04/14 07:28:26;;;;;;;6.82;1.95;;;;;;;10.29;53.94;100849.38;5104393;28;20147;-66
2023/04/14 07:30:55;;;;;;;5.60;2.80;;;;;;;10.24;54.00;100843.84;5109743;28;20532;-65
2023/04/14 07:33:24;;;;;;;3.78;2.15;;;;;;;10.26;54.43;100847.13;5115459;28;20127;-65
2023/04/14 07:35:53;;;;;;;3.78;1.92;;;;;;;10.22;54.86;100840.53;5102184;28;20511;-64
2023/04/14 07:38:31;;;;;;;6.45;1.95;;;;;;;10.14;55.33;100834.59;5106509;28;20219;-66
2023/04/14 07:40:59;;;;;;;5.03;2.10;;;;;;;10.17;54.83;100836.84;5112796;28;20570;-65
2023/04/14 07:43:26;;;;;;;4.75;2.13;;;;;;;10.24;55.12;100827.72;5116283;28;20054;-65
2023/04/14 07:45:54;;;;;;;7.40;2.03;;;;;;;10.27;54.77;100834.50;5108444;27;20755;-65
2023/04/14 07:48:22;;;;;;;4.72;1.92;;;;;;;10.30;54.90;100834.06;5092263;28;20041;-65
2023/04/14 07:50:50;;;;;;;5.07;2.42;;;;;;;10.32;55.05;100832.00;5089600;28;20473;-64
2023/04/14 07:53:19;;;;;;;6.22;2.55;;;;;;;10.30;55.24;100834.06;5105318;28;20039;-65
2023/04/14 07:55:46;;;;;;;4.65;2.00;;;;;;;10.38;55.95;100833.78;5110808;28;20044;-65
2023/04/14 07:58:16;;;;;;;4.63;2.25;;;;;;;10.29;55.94;100832.44;5098732;28;20075;-64
2023/04/14 08:00:44;;;;;;;4.43;1.70;;;;;;;10.24;56.19;100829.59;5107612;28;20071;-65
2023/04/14 08:03:12;;;;;;;4.68;1.88;;;;;;;10.21;56.10;100830.84;5104497;28;20724;-65
2023/04/14 08:05:41;;;;;;;4.72;1.70;;;;;;;10.21;56.36;100836.22;5111253;28;20405;-65
2023/04/14 08:08:10;;;;;;;5.95;2.00;;;;;;;10.21;56.48;100836.22;5111349;28;20040;-65
2023/04/14 08:10:40;;;;;;;5.38;1.85;;;;;;;10.20;56.42;100833.75;5110947;28;20067;-65
2023/04/14 08:13:08;;;;;;;3.35;1.98;;;;;;;10.29;56.86;100829.75;5109589;28;20126;-65
2023/04/14 08:15:35;;;;;;;3.75;1.80;;;;;;;10.29;56.75;100835.94;5111789;28;20134;-65
2023/04/14 08:18:04;;;;;;;6.03;1.88;;;;;;;10.30;56.75;100834.91;5118230;28;20420;-65
2023/04/14 08:20:32;;;;;;;2.80;1.30;;;;;;;10.31;56.67;100830.34;5104034;28;20049;-65
2023/04/14 08:23:00;;;;;;;6.53;2.00;;;;;;;10.28;56.70;100828.09;5117052;28;20051;-65
2023/04/14 08:25:27;;;;;;;5.95;2.35;;;;;;;10.27;56.72;100823.78;5105002;28;20347;-65
2023/04/14 08:27:56;;;;;;;3.80;1.42;;;;;;;10.27;56.86;100829.13;5108330;28;20218;-65
2023/04/14 08:30:25;;;;;;;4.60;1.60;;;;;;;10.29;57.12;100827.88;5108858;28;20050;-64
2023/04/14 08:32:52;;;;;;;5.47;2.17;;;;;;;10.32;57.38;100829.31;5110024;28;20044;-65
2023/04/14 08:35:25;;;;;;;5.72;2.08;;;;;;;10.41;57.85;100826.09;5110208;28;20048;-65
2023/04/14 08:38:07;;;;;;;3.65;1.50;;;;;;;10.49;57.47;100830.34;5102693;28;20056;-65
2023/04/14 08:40:38;;;;;;;3.67;1.25;;;;;;;10.56;58.76;100819.53;5097967;28;20083;-67
2023/04/14 08:43:08;;;;;;;5.60;1.67;;;;;;;10.56;57.96;100823.03;5088739;28;20054;-66
2023/04/14 08:45:36;;;;;;;2.65;1.60;;;;;;;10.54;57.79;100816.25;5116289;27;20091;-65
2023/04/14 08:48:05;;;;;;;4.90;1.52;;;;;;;10.56;57.66;100823.03;5095584;28;20059;-65
2023/04/14 08:50:36;;;;;;;3.83;1.55;;;;;;;10.70;57.73;100829.09;5092465;28;20040;-65
2023/04/14 08:53:08;;;;;;;5.82;1.50;;;;;;;11.16;56.38;100823.19;5092611;28;20382;-67
2023/04/14 08:55:37;;;;;;;4.13;1.95;;;;;;;11.49;56.59;100825.44;5112653;28;20043;-65
2023/04/14 08:58:09;;;;;;;3.90;1.58;;;;;;;11.88;54.54;100829.47;5112910;28;20063;-64
2023/04/14 09:00:38;;;;;;;4.97;1.40;;;;;;;12.08;54.49;100820.25;5099543;28;20056;-65
2023/04/14 09:03:07;;;;;;;12.80;1.75;;;;;;;12.18;52.96;100823.97;5103829;28;20051;-64
2023/04/14 09:05:36;;;;;;;12.02;2.10;;;;;;;12.28;53.35;100824.22;5096034;28;20048;-63
2023/04/14 09:08:04;;;;;;;19.38;2.30;;;;;;;12.49;52.63;100819.31;5120350;28;20047;-62
2023/04/14 09:10:32;;;;;;;7.45;1.60;;;;;;;12.63;51.44;100818.00;5106438;28;20067;-63
2023/04/14 09:13:00;;;;;;;8.75;1.60;;;;;;;12.75;51.89;100818.81;5116044;28;20108;-63
2023/04/14 09:15:30;;;;;;;6.78;1.85;;;;;;;12.80;52.86;100812.72;5106296;28;20059;-63
2023/04/14 09:17:58;;;;;;;6.55;2.08;;;;;;;13.04;52.79;100817.81;5108853;28;20043;-64
2023/04/14 09:20:26;;;;;;;6.60;1.52;;;;;;;12.89;53.86;100808.59;5107846;28;20588;-64
2023/04/14 09:23:07;;;;;;;6.18;1.55;;;;;;;12.63;53.63;100809.91;5106742;28;20479;-64
2023/04/14 09:25:36;;;;;;;3.75;1.70;;;;;;;12.40;54.67;100810.75;5109037;28;20075;-64
2023/04/14 09:28:04;;;;;;;8.23;1.30;;;;;;;12.18;55.55;100805.13;5119793;27;20052;-64
2023/04/14 09:30:33;;;;;;;4.35;1.67;;;;;;;12.07;55.82;100808.66;5117128;28;20052;-63
2023/04/14 09:33:04;;;;;;;5.18;1.70;;;;;;;12.16;55.97;100798.31;5111314;28;20071;-64
2023/04/14 09:35:44;;;;;;;4.88;1.45;;;;;;;12.28;55.50;100805.34;5119628;28;20079;-63
2023/04/14 09:38:12;;;;;;;5.45;2.15;;;;;;;12.02;55.43;100803.97;5105332;28;20067;-62
2023/04/14 09:40:42;;;;;;;4.90;1.90;;;;;;;11.84;55.71;100800.53;4758090;28;10000472;-62
2023/04/14 09:43:23;;;;;;;8.18;1.60;;;;;;;11.74;56.63;100799.19;5112507;27;20474;-63
2023/04/14 09:45:53;;;;;;;5.78;1.90;;;;;;;11.93;56.51;100791.06;5108047;28;20047;-62
2023/04/14 09:48:21;;;;;;;4.03;0.98;;;;;;;11.79;56.77;100784.25;5114932;28;20051;-62
2023/04/14 09:50:57;;;;;;;5.20;1.83;;;;;;;11.71;57.18;100783.50;5109670;28;21454;-62
2023/04/14 09:53:27;;;;;;;6.45;1.95;;;;;;;11.64;57.32;100790.88;5099790;28;20047;-62
2023/04/14 09:55:55;;;;;;;4.10;1.60;;;;;;;11.98;57.42;100792.00;5101905;28;20050;-62
2023/04/14 09:58:23;;;;;;;4.05;1.77;;;;;;;11.80;57.34;100785.91;5087390;28;20467;-62
2023/04/14 10:00:56;;;;;;;3.95;1.45;;;;;;;11.69;57.45;100785.59;5100844;28;20039;-63
2023/04/14 10:03:34;;;;;;;7.93;1.73;;;;;;;11.70;57.80;100784.56;5098671;28;20040;-62
2023/04/14 10:06:06;;;;;;;2.35;1.33;;;;;;;11.76;58.10;100784.69;5101775;28;20305;-61
2023/04/14 10:08:36;;;;;;;4.88;1.45;;;;;;;11.87;58.40;100770.47;5101300;28;20524;-63
2023/04/14 10:11:18;;;;;;;4.15;1.10;;;;;;;11.80;57.87;100769.75;5086199;28;20367;-62
2023/04/14 10:13:47;;;;;;;6.68;1.30;;;;;;;11.75;57.78;100767.72;5107885;28;20139;-64
2023/04/14 10:16:16;;;;;;;7.00;1.52;;;;;;;11.79;57.83;100766.22;5093738;28;20048;-63
2023/04/14 10:18:45;;;;;;;4.72;1.38;;;;;;;11.76;57.77;100763.97;5103508;28;20043;-62
2023/04/14 10:21:14;;;;;;;5.00;2.25;;;;;;;11.79;57.90;100755.47;5109118;28;20461;-63
2023/04/14 10:23:43;;;;;;;6.20;1.83;;;;;;;11.81;58.12;100758.75;5106652;28;20055;-63
2023/04/14 10:26:12;;;;;;;7.25;2.35;;;;;;;11.87;57.76;100754.28;5107320;28;20062;-61
2023/04/14 10:28:42;;;;;;;6.53;2.33;;;;;;;12.06;57.06;100747.75;5108211;28;20089;-63
2023/04/14 10:31:14;;;;;;;7.25;1.58;;;;;;;12.32;56.16;100749.13;5106738;28;20048;-61
2023/04/14 10:33:44;;;;;;;3.03;1.48;;;;;;;12.65;55.71;100737.69;5114566;28;20608;-62
2023/04/14 10:36:12;;;;;;;7.63;1.58;;;;;;;12.94;55.04;100738.56;5107373;28;20054;-63
2023/04/14 10:38:42;;;;;;;6.88;1.65;;;;;;;13.05;54.60;100732.31;5111888;28;20061;-62
2023/04/14 10:41:11;;;;;;;4.25;1.73;;;;;;;13.10;54.33;100726.19;5101618;28;20051;-63
2023/04/14 10:43:40;;;;;;;6.25;1.33;;;;;;;13.08;54.77;100742.63;5107742;28;20464;-63
2023/04/14 10:46:09;;;;;;;3.55;1.30;;;;;;;12.98;55.02;100737.84;5107199;28;20052;-63
2023/04/14 10:48:38;;;;;;;3.63;1.40;;;;;;;12.85;55.53;100732.72;5106501;28;20432;-63
2023/04/14 10:51:09;;;;;;;4.63;1.40;;;;;;;12.74;56.12;100724.66;5109312;28;20252;-62
2023/04/14 10:53:43;;;;;;;5.20;1.27;;;;;;;12.70;55.76;100729.72;5109915;28;20138;-63
2023/04/14 10:56:11;;;;;;;4.88;1.42;;;;;;;12.63;56.38;100719.06;5111211;28;20067;-64
2023/04/14 10:58:39;;;;;;;3.97;1.35;;;;;;;12.61;56.29;100725.75;5111294;28;20093;-60
2023/04/14 11:01:28;;;;;;;5.50;1.50;;;;;;;12.66;57.11;100720.47;5110573;28;20055;-61
2023/04/14 11:03:57;;;;;;;4.82;1.35;;;;;;;12.79;57.29;100712.09;5110470;27;20440;-61
2023/04/14 11:06:55;;;;;;;8.63;1.45;;;;;;;12.65;57.11;100702.66;5109373;28;20375;-61
2023/04/14 11:09:26;;;;;;;3.78;1.50;;;;;;;12.74;57.23;100712.00;5109735;28;20411;-61
2023/04/14 11:11:56;;;;;;;8.02;1.58;;;;;;;12.78;57.26;100713.16;5107670;28;20047;-61
2023/04/14 11:14:27;;;;;;;8.70;1.60;;;;;;;12.78;57.68;100705.06;5103408;27;20549;-61
2023/04/14 11:17:00;;;;;;;7.30;2.78;;;;;;;12.78;57.55;100705.06;5110916;28;20044;-61
2023/04/14 11:19:32;;;;;;;7.47;2.28;;;;;;;12.80;57.38;100708.34;5109288;28;20066;-61
2023/04/14 11:22:01;;;;;;;6.57;1.70;;;;;;;12.76;57.07;100700.97;5110531;28;20062;-61
2023/04/14 11:24:29;;;;;;;5.70;1.42;;;;;;;12.77;56.87;100706.13;5109982;28;20115;-61
2023/04/14 11:26:58;;;;;;;5.28;1.90;;;;;;;13.00;58.14;100707.94;5102805;28;20060;-61
2023/04/14 11:29:26;;;;;;;4.07;1.50;;;;;;;13.07;58.32;100707.78;5088728;28;20071;-61
2023/04/14 11:32:01;;;;;;;4.85;1.30;;;;;;;13.06;57.79;100708.84;5107901;28;20043;-61
2023/04/14 11:34:29;;;;;;;5.18;1.83;;;;;;;13.09;57.31;100702.97;5108697;28;20079;-61
2023/04/14 11:36:57;;;;;;;5.25;1.80;;;;;;;12.99;57.19;100695.50;5110381;28;20077;-61
2023/04/14 11:39:28;;;;;;;11.70;2.58;;;;;;;13.06;58.66;100706.13;5110604;28;20272;-61
2023/04/14 11:41:58;;;;;;;18.45;4.32;;;;;;;13.14;59.08;100703.88;5100794;28;20090;-61